createdAt,value
2017-08-12T00:01:22.449Z,99.99
2017-08-12T00:06:18.609Z,99.99
2017-08-12T00:11:14.602Z,99.99
2017-08-12T00:21:15.613Z,99.99
2017-08-12T00:26:13.410Z,99.99
2017-08-12T00:31:10.890Z,99.99
2017-08-12T00:36:10.670Z,99.99
2017-08-12T00:41:07.494Z,99.99
2017-08-12T00:46:06.701Z,99.99
2017-08-12T00:51:07.723Z,99.99
2017-08-12T00:56:09.201Z,99.99
2017-08-12T01:01:05.777Z,99.99
2017-08-12T01:06:04.252Z,99.99
2017-08-12T01:16:08.621Z,99.99
2017-08-12T01:21:10.422Z,99.99
2017-08-12T01:26:11.278Z,99.99
2017-08-12T01:31:09.704Z,99.99
2017-08-12T02:01:20.220Z,99.99
2017-08-12T02:11:25.600Z,99.99
2017-08-12T02:57:02.342Z,99.99
2017-08-12T03:57:52.236Z,99.99
2017-08-12T04:23:11.157Z,99.99
2017-08-12T04:28:10.333Z,99.99
2017-08-12T04:33:16.002Z,99.99
2017-08-12T04:38:14.414Z,99.99
2017-08-12T05:23:42.978Z,99.99
2017-08-12T05:33:45.041Z,99.99
2017-08-12T05:38:47.394Z,99.99
2017-08-12T05:58:59.027Z,99.99
2017-08-12T06:09:04.693Z,99.99
2017-08-12T06:19:06.696Z,99.99
2017-08-12T06:24:02.619Z,99.99
2017-08-12T06:29:00.649Z,99.99
2017-08-12T06:39:02.527Z,99.99
2017-08-12T06:43:58.982Z,99.99
2017-08-12T06:48:58.694Z,99.99
2017-08-12T07:04:04.412Z,99.99
2017-08-12T07:09:01.121Z,99.99
2017-08-12T07:13:57.135Z,99.99
2017-08-12T07:18:53.018Z,99.99
2017-08-12T07:23:49.197Z,99.99
2017-08-12T07:28:46.632Z,99.99
2017-08-12T07:33:42.198Z,99.99
2017-08-12T07:38:38.366Z,99.99
2017-08-12T07:53:40.793Z,99.99
2017-08-12T07:58:37.786Z,99.99
2017-08-12T08:08:42.080Z,99.67
2017-08-12T08:23:46.592Z,98.61
2017-08-12T08:28:41.369Z,98.33
2017-08-12T08:33:39.130Z,98.52
2017-08-12T08:38:35.946Z,98.28
2017-08-12T08:43:34.466Z,98.38
2017-08-12T08:53:35.877Z,96.66
2017-08-12T08:58:33.256Z,98.19
2017-08-12T09:03:29.348Z,97.80
2017-08-12T09:08:26.397Z,96.51
2017-08-12T09:13:23.298Z,95.70
2017-08-12T09:18:19.508Z,95.12
2017-08-12T09:28:20.923Z,93.69
2017-08-12T09:33:16.710Z,93.79
2017-08-12T09:38:12.882Z,93.69
2017-08-12T09:43:09.918Z,93.69
2017-08-12T09:48:08.750Z,93.21
2017-08-12T09:53:05.016Z,92.35
2017-08-12T09:58:01.688Z,92.01
2017-08-12T10:02:57.661Z,91.72
2017-08-12T10:07:53.394Z,91.01
2017-08-12T10:12:50.517Z,90.53
2017-08-12T10:17:46.579Z,90.53
2017-08-12T10:22:43.520Z,90.00
2017-08-12T10:27:40.353Z,89.33
2017-08-12T10:32:36.238Z,88.85
2017-08-12T10:37:33.789Z,88.76
2017-08-12T10:42:30.665Z,88.28
2017-08-12T10:47:28.392Z,88.28
2017-08-12T10:52:25.192Z,87.61
2017-08-12T10:57:21.846Z,86.94
2017-08-12T11:02:17.319Z,87.03
2017-08-12T11:07:13.698Z,86.74
2017-08-12T11:12:11.061Z,86.36
2017-08-12T11:17:08.564Z,86.08
2017-08-12T11:22:05.185Z,85.60
2017-08-12T11:27:02.081Z,85.60
2017-08-12T11:31:58.111Z,85.41
2017-08-12T11:36:53.859Z,85.02
2017-08-12T11:41:51.043Z,84.58
2017-08-12T11:46:49.951Z,84.11
2017-08-12T11:51:49.357Z,83.82
2017-08-12T11:56:45.067Z,83.34
2017-08-12T12:01:41.984Z,83.05
2017-08-12T12:06:44.529Z,82.67
2017-08-12T12:11:41.834Z,82.48
2017-08-12T12:16:40.013Z,82.29
2017-08-12T12:21:37.640Z,81.90
2017-08-12T12:26:34.244Z,80.85
2017-08-12T12:31:30.108Z,80.76
2017-08-12T12:36:26.549Z,80.85
2017-08-12T12:41:23.143Z,80.37
2017-08-12T12:46:21.110Z,79.99
2017-08-12T12:51:18.666Z,79.83
2017-08-12T12:56:14.306Z,79.51
2017-08-12T13:01:11.242Z,79.36
2017-08-12T13:06:06.986Z,78.78
2017-08-12T13:11:04.372Z,78.20
2017-08-12T13:16:01.268Z,78.30
2017-08-12T13:20:57.605Z,77.44
2017-08-12T13:25:53.388Z,77.73
2017-08-12T13:30:49.749Z,77.15
2017-08-12T13:35:46.271Z,76.86
2017-08-12T13:40:43.033Z,76.62
2017-08-12T13:45:39.430Z,76.52
2017-08-12T13:50:36.266Z,76.42
2017-08-12T13:55:31.976Z,76.23
2017-08-12T14:00:29.812Z,75.56
2017-08-12T14:05:28.149Z,75.18
2017-08-12T14:10:26.290Z,74.64
2017-08-12T14:15:22.978Z,74.41
2017-08-12T14:20:20.099Z,74.12
2017-08-12T14:25:17.260Z,74.16
2017-08-12T14:30:15.587Z,73.00
2017-08-12T14:35:12.768Z,72.72
2017-08-12T14:40:08.460Z,72.81
2017-08-12T14:45:04.804Z,72.33
2017-08-12T14:50:03.999Z,71.95
2017-08-12T14:55:00.379Z,71.09
2017-08-12T14:59:55.657Z,71.57
2017-08-12T15:04:52.782Z,71.47
2017-08-12T15:09:48.538Z,71.09
2017-08-12T15:14:44.613Z,70.80
2017-08-12T15:19:41.632Z,70.61
2017-08-12T15:24:37.441Z,70.23
2017-08-12T15:34:32.563Z,68.69
2017-08-12T15:39:28.507Z,68.69
2017-08-12T15:44:25.055Z,68.30
2017-08-12T15:49:22.275Z,67.92
2017-08-12T15:54:18.375Z,67.92
2017-08-12T15:59:14.158Z,67.29
2017-08-12T16:04:11.424Z,66.71
2017-08-12T16:09:09.255Z,66.61
2017-08-12T16:14:05.615Z,65.94
2017-08-12T16:19:03.078Z,65.46
2017-08-12T16:23:59.156Z,65.65
2017-08-12T16:28:55.200Z,65.36
2017-08-12T16:33:52.018Z,65.36
2017-08-12T16:38:48.729Z,65.36
2017-08-12T16:43:46.402Z,65.27
2017-08-12T16:48:42.119Z,65.36
2017-08-12T16:53:38.963Z,64.22
2017-08-12T17:03:38.282Z,63.83
2017-08-12T17:13:40.377Z,62.29
2017-08-12T17:28:41.705Z,60.82
2017-08-12T17:33:38.382Z,60.53
2017-08-12T17:38:33.995Z,63.12
2017-08-12T17:43:30.982Z,61.59
2017-08-12T17:48:26.976Z,61.30
2017-08-12T17:53:23.835Z,60.92
2017-08-12T17:58:20.123Z,59.58
2017-08-12T18:03:17.396Z,59.19
2017-08-12T18:08:13.363Z,59.09
2017-08-12T18:13:09.088Z,59.48
2017-08-12T18:18:04.735Z,59.19
2017-08-12T18:23:02.245Z,57.85
2017-08-12T18:27:58.918Z,56.98
2017-08-12T18:33:00.493Z,56.12
2017-08-12T18:43:02.928Z,54.01
2017-08-12T18:53:04.206Z,53.53
2017-08-12T19:08:06.166Z,51.40
2017-08-12T19:18:06.684Z,50.63
2017-08-12T19:23:06.308Z,50.24
2017-08-12T19:28:03.158Z,49.57
2017-08-12T19:33:02.644Z,49.00
2017-08-12T19:48:06.563Z,47.37
2017-08-12T19:58:10.303Z,46.79
2017-08-12T20:03:07.786Z,46.41
2017-08-12T20:08:07.089Z,46.22
2017-08-12T20:13:06.763Z,45.36
2017-08-12T20:18:02.955Z,45.26
2017-08-12T20:23:00.003Z,44.68
2017-08-12T20:33:01.900Z,44.11
2017-08-12T20:43:01.508Z,43.70
2017-08-12T20:47:57.431Z,43.41
2017-08-12T20:52:56.651Z,43.13
2017-08-12T21:02:54.298Z,42.55
2017-08-12T21:07:51.069Z,41.88
2017-08-12T21:12:47.685Z,42.17
2017-08-12T21:17:43.246Z,49.65
2017-08-12T21:22:39.914Z,46.94
2017-08-12T21:27:36.825Z,47.42
2017-08-12T21:32:33.364Z,47.13
2017-08-12T21:37:28.898Z,48.95
2017-08-12T21:42:24.924Z,45.98
2017-08-12T21:47:21.726Z,43.77
2017-08-12T21:52:20.092Z,44.93
2017-08-12T21:57:15.904Z,45.02
2017-08-12T22:02:14.088Z,48.75
2017-08-12T22:07:11.177Z,46.26
2017-08-12T22:12:13.095Z,46.26
2017-08-12T22:17:14.469Z,45.38
2017-08-12T22:22:10.133Z,44.81
2017-08-12T22:42:23.478Z,41.55
2017-08-12T22:47:21.254Z,41.36
2017-08-12T22:52:20.077Z,40.41
2017-08-12T23:12:29.101Z,40.02
2017-08-12T23:17:26.203Z,39.92
2017-08-12T23:22:24.164Z,39.90
2017-08-12T23:47:31.292Z,38.95
2017-08-12T23:57:38.216Z,38.95
